sensor_id;sensor_type;location;lat;lon;timestamp;P1;durP1;ratioP1;P2;durP2;ratioP2
53644;SDS011;39547;45.554;12.068;2023-04-25T00:01:43;13.57;;;5.10;;
53644;SDS011;39547;45.554;12.068;2023-04-25T00:07:45;13.95;;;5.90;;
53644;SDS011;39547;45.554;12.068;2023-04-25T00:13:46;13.70;;;5.78;;
53644;SDS011;39547;45.554;12.068;2023-04-25T00:19:49;13.18;;;5.20;;
53644;SDS011;39547;45.554;12.068;2023-04-25T00:25:50;13.05;;;5.38;;
53644;SDS011;39547;45.554;12.068;2023-04-25T00:31:52;12.82;;;4.38;;
53644;SDS011;39547;45.554;12.068;2023-04-25T00:37:54;12.70;;;4.90;;
53644;SDS011;39547;45.554;12.068;2023-04-25T00:43:55;12.60;;;4.97;;
53644;SDS011;39547;45.554;12.068;2023-04-25T00:49:58;11.82;;;4.20;;
53644;SDS011;39547;45.554;12.068;2023-04-25T00:56:00;14.10;;;5.88;;
53644;SDS011;39547;45.554;12.068;2023-04-25T01:02:01;13.30;;;5.55;;
53644;SDS011;39547;45.554;12.068;2023-04-25T01:08:03;12.73;;;5.20;;
53644;SDS011;39547;45.554;12.068;2023-04-25T01:14:04;14.40;;;5.97;;
53644;SDS011;39547;45.554;12.068;2023-04-25T01:20:06;12.20;;;4.68;;
53644;SDS011;39547;45.554;12.068;2023-04-25T01:26:10;12.80;;;4.67;;
53644;SDS011;39547;45.554;12.068;2023-04-25T01:32:13;13.70;;;5.88;;
53644;SDS011;39547;45.554;12.068;2023-04-25T01:38:15;13.88;;;6.00;;
53644;SDS011;39547;45.554;12.068;2023-04-25T01:44:16;14.77;;;6.22;;
53644;SDS011;39547;45.554;12.068;2023-04-25T01:50:18;14.45;;;6.50;;
53644;SDS011;39547;45.554;12.068;2023-04-25T01:56:20;15.30;;;6.25;;
53644;SDS011;39547;45.554;12.068;2023-04-25T02:02:21;14.43;;;6.70;;
53644;SDS011;39547;45.554;12.068;2023-04-25T02:08:23;14.05;;;5.80;;
53644;SDS011;39547;45.554;12.068;2023-04-25T02:14:28;13.73;;;6.15;;
53644;SDS011;39547;45.554;12.068;2023-04-25T02:20:53;13.13;;;5.38;;
53644;SDS011;39547;45.554;12.068;2023-04-25T02:26:55;14.07;;;5.55;;
53644;SDS011;39547;45.554;12.068;2023-04-25T02:32:56;14.20;;;5.63;;
53644;SDS011;39547;45.554;12.068;2023-04-25T02:38:58;13.60;;;5.38;;
53644;SDS011;39547;45.554;12.068;2023-04-25T02:44:59;13.85;;;5.97;;
53644;SDS011;39547;45.554;12.068;2023-04-25T02:51:01;13.43;;;6.13;;
53644;SDS011;39547;45.554;12.068;2023-04-25T02:57:03;14.18;;;6.18;;
53644;SDS011;39547;45.554;12.068;2023-04-25T03:03:10;15.23;;;6.82;;
53644;SDS011;39547;45.554;12.068;2023-04-25T03:09:11;13.88;;;6.13;;
53644;SDS011;39547;45.554;12.068;2023-04-25T03:15:13;13.35;;;5.97;;
53644;SDS011;39547;45.554;12.068;2023-04-25T03:21:16;13.77;;;5.90;;
53644;SDS011;39547;45.554;12.068;2023-04-25T03:27:18;15.05;;;7.13;;
53644;SDS011;39547;45.554;12.068;2023-04-25T03:33:20;13.88;;;6.13;;
53644;SDS011;39547;45.554;12.068;2023-04-25T03:39:21;15.35;;;7.45;;
53644;SDS011;39547;45.554;12.068;2023-04-25T03:45:25;14.93;;;6.77;;
53644;SDS011;39547;45.554;12.068;2023-04-25T03:51:27;13.65;;;5.85;;
53644;SDS011;39547;45.554;12.068;2023-04-25T03:57:28;16.13;;;7.38;;
53644;SDS011;39547;45.554;12.068;2023-04-25T04:03:30;15.30;;;7.03;;
53644;SDS011;39547;45.554;12.068;2023-04-25T04:09:32;15.25;;;7.10;;
53644;SDS011;39547;45.554;12.068;2023-04-25T04:15:37;15.57;;;7.18;;
53644;SDS011;39547;45.554;12.068;2023-04-25T04:21:39;17.88;;;9.30;;
53644;SDS011;39547;45.554;12.068;2023-04-25T04:27:41;13.90;;;6.38;;
53644;SDS011;39547;45.554;12.068;2023-04-25T04:34:01;15.50;;;7.47;;
53644;SDS011;39547;45.554;12.068;2023-04-25T04:40:05;16.87;;;8.00;;
53644;SDS011;39547;45.554;12.068;2023-04-25T04:46:25;17.05;;;8.80;;
53644;SDS011;39547;45.554;12.068;2023-04-25T04:52:51;14.73;;;6.78;;
53644;SDS011;39547;45.554;12.068;2023-04-25T04:59:11;17.58;;;8.73;;
53644;SDS011;39547;45.554;12.068;2023-04-25T05:05:48;16.48;;;8.60;;
53644;SDS011;39547;45.554;12.068;2023-04-25T05:12:08;15.63;;;8.02;;
53644;SDS011;39547;45.554;12.068;2023-04-25T05:18:25;16.08;;;8.15;;
53644;SDS011;39547;45.554;12.068;2023-04-25T05:24:46;17.20;;;9.00;;
53644;SDS011;39547;45.554;12.068;2023-04-25T05:31:03;19.52;;;9.65;;
53644;SDS011;39547;45.554;12.068;2023-04-25T05:37:13;17.55;;;9.18;;
53644;SDS011;39547;45.554;12.068;2023-04-25T05:43:26;19.13;;;8.73;;
53644;SDS011;39547;45.554;12.068;2023-04-25T05:49:44;23.08;;;12.75;;
53644;SDS011;39547;45.554;12.068;2023-04-25T05:56:06;21.88;;;11.68;;
53644;SDS011;39547;45.554;12.068;2023-04-25T06:02:09;18.73;;;9.52;;
53644;SDS011;39547;45.554;12.068;2023-04-25T06:08:12;19.15;;;10.20;;
53644;SDS011;39547;45.554;12.068;2023-04-25T06:14:13;22.08;;;11.45;;
53644;SDS011;39547;45.554;12.068;2023-04-25T06:20:21;14.55;;;6.65;;
53644;SDS011;39547;45.554;12.068;2023-04-25T06:26:25;19.40;;;9.25;;
53644;SDS011;39547;45.554;12.068;2023-04-25T06:32:27;23.67;;;12.57;;
53644;SDS011;39547;45.554;12.068;2023-04-25T06:38:32;16.25;;;7.75;;
53644;SDS011;39547;45.554;12.068;2023-04-25T06:44:35;16.95;;;7.72;;
53644;SDS011;39547;45.554;12.068;2023-04-25T06:50:38;19.75;;;10.35;;
53644;SDS011;39547;45.554;12.068;2023-04-25T06:56:40;22.23;;;12.43;;
53644;SDS011;39547;45.554;12.068;2023-04-25T07:02:49;18.77;;;9.20;;
53644;SDS011;39547;45.554;12.068;2023-04-25T07:08:51;21.30;;;11.65;;
53644;SDS011;39547;45.554;12.068;2023-04-25T07:14:53;17.33;;;9.00;;
53644;SDS011;39547;45.554;12.068;2023-04-25T07:20:55;18.95;;;9.70;;
53644;SDS011;39547;45.554;12.068;2023-04-25T07:26:57;20.25;;;11.00;;
53644;SDS011;39547;45.554;12.068;2023-04-25T07:33:05;25.13;;;14.43;;
53644;SDS011;39547;45.554;12.068;2023-04-25T07:39:08;18.25;;;9.27;;
53644;SDS011;39547;45.554;12.068;2023-04-25T07:45:13;20.52;;;11.10;;
53644;SDS011;39547;45.554;12.068;2023-04-25T07:51:15;20.95;;;12.13;;
53644;SDS011;39547;45.554;12.068;2023-04-25T07:57:17;23.65;;;13.90;;
53644;SDS011;39547;45.554;12.068;2023-04-25T08:03:22;27.80;;;16.98;;
53644;SDS011;39547;45.554;12.068;2023-04-25T08:09:23;23.17;;;13.02;;
53644;SDS011;39547;45.554;12.068;2023-04-25T08:15:27;23.17;;;13.38;;
53644;SDS011;39547;45.554;12.068;2023-04-25T08:21:29;20.60;;;11.57;;
53644;SDS011;39547;45.554;12.068;2023-04-25T08:33:35;24.05;;;13.23;;
53644;SDS011;39547;45.554;12.068;2023-04-25T08:40:03;23.15;;;12.85;;
53644;SDS011;39547;45.554;12.068;2023-04-25T08:46:26;23.85;;;13.45;;
53644;SDS011;39547;45.554;12.068;2023-04-25T08:52:51;22.23;;;12.82;;
53644;SDS011;39547;45.554;12.068;2023-04-25T08:58:54;20.85;;;11.27;;
53644;SDS011;39547;45.554;12.068;2023-04-25T09:04:57;23.25;;;12.00;;
53644;SDS011;39547;45.554;12.068;2023-04-25T09:10:58;31.88;;;19.23;;
53644;SDS011;39547;45.554;12.068;2023-04-25T09:17:00;21.48;;;12.23;;
53644;SDS011;39547;45.554;12.068;2023-04-25T09:23:14;23.90;;;13.18;;
53644;SDS011;39547;45.554;12.068;2023-04-25T09:29:16;24.83;;;13.90;;
53644;SDS011;39547;45.554;12.068;2023-04-25T09:35:24;21.02;;;11.48;;
53644;SDS011;39547;45.554;12.068;2023-04-25T09:41:31;22.23;;;11.55;;
53644;SDS011;39547;45.554;12.068;2023-04-25T09:47:36;19.00;;;10.60;;
53644;SDS011;39547;45.554;12.068;2023-04-25T09:53:41;20.13;;;10.85;;
53644;SDS011;39547;45.554;12.068;2023-04-25T09:59:52;19.23;;;9.07;;
53644;SDS011;39547;45.554;12.068;2023-04-25T10:05:55;14.17;;;6.37;;
53644;SDS011;39547;45.554;12.068;2023-04-25T10:12:00;12.80;;;4.70;;
53644;SDS011;39547;45.554;12.068;2023-04-25T10:18:01;10.50;;;3.00;;
53644;SDS011;39547;45.554;12.068;2023-04-25T10:24:03;10.43;;;3.00;;
53644;SDS011;39547;45.554;12.068;2023-04-25T10:30:07;10.65;;;3.10;;
53644;SDS011;39547;45.554;12.068;2023-04-25T10:36:17;7.93;;;2.20;;
53644;SDS011;39547;45.554;12.068;2023-04-25T10:42:19;9.18;;;2.40;;
53644;SDS011;39547;45.554;12.068;2023-04-25T10:48:27;11.18;;;3.25;;
53644;SDS011;39547;45.554;12.068;2023-04-25T10:54:32;10.02;;;2.40;;
53644;SDS011;39547;45.554;12.068;2023-04-25T11:00:33;8.90;;;2.20;;
53644;SDS011;39547;45.554;12.068;2023-04-25T11:12:52;7.63;;;2.10;;
53644;SDS011;39547;45.554;12.068;2023-04-25T11:18:53;8.18;;;2.30;;
53644;SDS011;39547;45.554;12.068;2023-04-25T11:24:58;8.50;;;2.08;;
53644;SDS011;39547;45.554;12.068;2023-04-25T11:31:05;7.80;;;2.10;;
53644;SDS011;39547;45.554;12.068;2023-04-25T11:37:07;8.18;;;2.10;;
53644;SDS011;39547;45.554;12.068;2023-04-25T11:43:09;8.07;;;2.17;;
53644;SDS011;39547;45.554;12.068;2023-04-25T11:49:11;6.18;;;1.92;;
53644;SDS011;39547;45.554;12.068;2023-04-25T11:55:16;7.28;;;2.00;;
53644;SDS011;39547;45.554;12.068;2023-04-25T12:01:29;5.57;;;1.90;;
53644;SDS011;39547;45.554;12.068;2023-04-25T12:07:31;6.78;;;2.05;;
53644;SDS011;39547;45.554;12.068;2023-04-25T12:13:32;7.15;;;1.90;;
53644;SDS011;39547;45.554;12.068;2023-04-25T12:19:34;6.10;;;1.90;;
53644;SDS011;39547;45.554;12.068;2023-04-25T12:31:39;5.47;;;1.90;;
53644;SDS011;39547;45.554;12.068;2023-04-25T12:37:40;5.45;;;1.80;;
53644;SDS011;39547;45.554;12.068;2023-04-25T12:43:42;5.40;;;1.80;;
53644;SDS011;39547;45.554;12.068;2023-04-25T12:49:43;6.25;;;1.80;;
53644;SDS011;39547;45.554;12.068;2023-04-25T12:55:45;5.90;;;1.88;;
53644;SDS011;39547;45.554;12.068;2023-04-25T13:01:47;6.93;;;2.00;;
53644;SDS011;39547;45.554;12.068;2023-04-25T13:07:48;6.00;;;1.90;;
53644;SDS011;39547;45.554;12.068;2023-04-25T13:13:50;6.80;;;2.00;;
53644;SDS011;39547;45.554;12.068;2023-04-25T13:19:51;5.65;;;2.00;;
53644;SDS011;39547;45.554;12.068;2023-04-25T13:25:53;6.55;;;1.90;;
53644;SDS011;39547;45.554;12.068;2023-04-25T13:31:55;4.50;;;1.70;;
53644;SDS011;39547;45.554;12.068;2023-04-25T13:37:57;5.85;;;1.83;;
53644;SDS011;39547;45.554;12.068;2023-04-25T13:43:58;5.60;;;1.80;;
53644;SDS011;39547;45.554;12.068;2023-04-25T13:50:01;6.53;;;2.00;;
53644;SDS011;39547;45.554;12.068;2023-04-25T13:56:04;7.32;;;2.00;;
53644;SDS011;39547;45.554;12.068;2023-04-25T14:02:05;7.63;;;2.15;;
53644;SDS011;39547;45.554;12.068;2023-04-25T14:08:08;8.20;;;2.10;;
53644;SDS011;39547;45.554;12.068;2023-04-25T14:14:10;10.02;;;2.72;;
53644;SDS011;39547;45.554;12.068;2023-04-25T14:20:12;7.97;;;2.28;;
53644;SDS011;39547;45.554;12.068;2023-04-25T14:26:14;8.50;;;2.30;;
53644;SDS011;39547;45.554;12.068;2023-04-25T14:32:15;8.88;;;2.40;;
53644;SDS011;39547;45.554;12.068;2023-04-25T14:38:17;7.97;;;2.20;;
53644;SDS011;39547;45.554;12.068;2023-04-25T14:44:23;9.35;;;2.40;;
53644;SDS011;39547;45.554;12.068;2023-04-25T14:50:25;8.80;;;2.33;;
53644;SDS011;39547;45.554;12.068;2023-04-25T14:56:26;9.65;;;2.60;;
53644;SDS011;39547;45.554;12.068;2023-04-25T15:02:28;9.30;;;2.70;;
53644;SDS011;39547;45.554;12.068;2023-04-25T15:08:29;9.43;;;2.33;;
53644;SDS011;39547;45.554;12.068;2023-04-25T15:14:31;8.38;;;2.40;;
53644;SDS011;39547;45.554;12.068;2023-04-25T15:20:34;8.75;;;2.33;;
53644;SDS011;39547;45.554;12.068;2023-04-25T15:26:36;8.68;;;2.38;;
53644;SDS011;39547;45.554;12.068;2023-04-25T15:32:37;8.93;;;2.30;;
53644;SDS011;39547;45.554;12.068;2023-04-25T15:38:39;10.00;;;2.40;;
53644;SDS011;39547;45.554;12.068;2023-04-25T15:44:41;9.40;;;2.30;;
53644;SDS011;39547;45.554;12.068;2023-04-25T15:50:42;9.05;;;2.40;;
53644;SDS011;39547;45.554;12.068;2023-04-25T15:56:43;9.68;;;2.60;;
53644;SDS011;39547;45.554;12.068;2023-04-25T16:02:45;11.75;;;3.92;;
53644;SDS011;39547;45.554;12.068;2023-04-25T16:08:50;10.00;;;2.70;;
53644;SDS011;39547;45.554;12.068;2023-04-25T16:14:52;9.13;;;2.50;;
53644;SDS011;39547;45.554;12.068;2023-04-25T16:20:54;9.73;;;2.58;;
53644;SDS011;39547;45.554;12.068;2023-04-25T16:26:56;10.13;;;2.90;;
53644;SDS011;39547;45.554;12.068;2023-04-25T16:32:57;10.25;;;2.97;;
53644;SDS011;39547;45.554;12.068;2023-04-25T16:38:59;10.07;;;2.80;;
53644;SDS011;39547;45.554;12.068;2023-04-25T16:45:03;10.10;;;2.80;;
53644;SDS011;39547;45.554;12.068;2023-04-25T16:51:04;9.25;;;2.67;;
53644;SDS011;39547;45.554;12.068;2023-04-25T16:57:06;9.35;;;2.70;;
53644;SDS011;39547;45.554;12.068;2023-04-25T17:03:10;10.40;;;3.05;;
53644;SDS011;39547;45.554;12.068;2023-04-25T17:09:12;10.73;;;3.20;;
53644;SDS011;39547;45.554;12.068;2023-04-25T17:15:14;10.32;;;3.00;;
53644;SDS011;39547;45.554;12.068;2023-04-25T17:21:15;10.88;;;2.92;;
53644;SDS011;39547;45.554;12.068;2023-04-25T17:27:17;11.18;;;2.92;;
53644;SDS011;39547;45.554;12.068;2023-04-25T17:33:19;10.43;;;2.70;;
53644;SDS011;39547;45.554;12.068;2023-04-25T17:39:20;10.40;;;2.97;;
53644;SDS011;39547;45.554;12.068;2023-04-25T17:45:22;10.20;;;2.65;;
53644;SDS011;39547;45.554;12.068;2023-04-25T17:51:23;10.23;;;2.70;;
53644;SDS011;39547;45.554;12.068;2023-04-25T17:57:26;11.35;;;3.20;;
53644;SDS011;39547;45.554;12.068;2023-04-25T18:03:27;10.65;;;2.92;;
53644;SDS011;39547;45.554;12.068;2023-04-25T18:09:29;11.48;;;2.90;;
53644;SDS011;39547;45.554;12.068;2023-04-25T18:15:32;10.63;;;3.10;;
53644;SDS011;39547;45.554;12.068;2023-04-25T18:21:34;10.18;;;3.00;;
53644;SDS011;39547;45.554;12.068;2023-04-25T18:27:36;10.27;;;3.00;;
53644;SDS011;39547;45.554;12.068;2023-04-25T18:33:39;10.73;;;3.20;;
53644;SDS011;39547;45.554;12.068;2023-04-25T18:39:41;11.73;;;3.70;;
53644;SDS011;39547;45.554;12.068;2023-04-25T18:45:42;11.90;;;3.60;;
53644;SDS011;39547;45.554;12.068;2023-04-25T18:51:44;12.07;;;3.70;;
53644;SDS011;39547;45.554;12.068;2023-04-25T18:57:45;12.35;;;3.80;;
53644;SDS011;39547;45.554;12.068;2023-04-25T19:03:47;10.57;;;3.50;;
53644;SDS011;39547;45.554;12.068;2023-04-25T19:09:55;11.57;;;3.70;;
53644;SDS011;39547;45.554;12.068;2023-04-25T19:15:57;12.45;;;4.75;;
53644;SDS011;39547;45.554;12.068;2023-04-25T19:21:58;12.50;;;4.50;;
53644;SDS011;39547;45.554;12.068;2023-04-25T19:28:00;12.98;;;4.85;;
53644;SDS011;39547;45.554;12.068;2023-04-25T19:34:03;12.68;;;4.50;;
53644;SDS011;39547;45.554;12.068;2023-04-25T19:40:05;13.38;;;4.60;;
53644;SDS011;39547;45.554;12.068;2023-04-25T19:46:07;13.45;;;5.93;;
53644;SDS011;39547;45.554;12.068;2023-04-25T19:52:09;13.63;;;5.40;;
53644;SDS011;39547;45.554;12.068;2023-04-25T19:58:14;14.73;;;5.93;;
53644;SDS011;39547;45.554;12.068;2023-04-25T20:04:16;15.48;;;5.70;;
53644;SDS011;39547;45.554;12.068;2023-04-25T20:10:18;13.95;;;6.00;;
53644;SDS011;39547;45.554;12.068;2023-04-25T20:16:19;14.85;;;6.00;;
53644;SDS011;39547;45.554;12.068;2023-04-25T20:22:21;14.85;;;6.18;;
53644;SDS011;39547;45.554;12.068;2023-04-25T20:28:23;15.70;;;6.22;;
53644;SDS011;39547;45.554;12.068;2023-04-25T20:34:24;13.90;;;6.07;;
53644;SDS011;39547;45.554;12.068;2023-04-25T20:40:26;14.15;;;5.97;;
53644;SDS011;39547;45.554;12.068;2023-04-25T20:46:28;14.35;;;6.10;;
53644;SDS011;39547;45.554;12.068;2023-04-25T20:52:29;14.23;;;6.05;;
53644;SDS011;39547;45.554;12.068;2023-04-25T20:58:32;13.90;;;5.88;;
53644;SDS011;39547;45.554;12.068;2023-04-25T21:04:33;15.32;;;6.72;;
53644;SDS011;39547;45.554;12.068;2023-04-25T21:10:35;15.50;;;6.78;;
53644;SDS011;39547;45.554;12.068;2023-04-25T21:16:38;15.68;;;7.30;;
53644;SDS011;39547;45.554;12.068;2023-04-25T21:22:40;14.73;;;6.15;;
53644;SDS011;39547;45.554;12.068;2023-04-25T21:28:48;14.77;;;6.40;;
53644;SDS011;39547;45.554;12.068;2023-04-25T21:34:50;15.10;;;6.55;;
53644;SDS011;39547;45.554;12.068;2023-04-25T21:40:51;14.95;;;6.60;;
53644;SDS011;39547;45.554;12.068;2023-04-25T21:46:53;13.07;;;5.22;;
53644;SDS011;39547;45.554;12.068;2023-04-25T21:52:54;13.65;;;6.07;;
53644;SDS011;39547;45.554;12.068;2023-04-25T21:58:58;14.93;;;6.57;;
53644;SDS011;39547;45.554;12.068;2023-04-25T22:05:00;14.02;;;5.93;;
53644;SDS011;39547;45.554;12.068;2023-04-25T22:11:01;14.45;;;6.22;;
53644;SDS011;39547;45.554;12.068;2023-04-25T22:17:06;14.70;;;6.60;;
53644;SDS011;39547;45.554;12.068;2023-04-25T22:23:08;15.20;;;7.22;;
53644;SDS011;39547;45.554;12.068;2023-04-25T22:29:09;16.23;;;7.85;;
53644;SDS011;39547;45.554;12.068;2023-04-25T22:35:12;16.10;;;7.60;;
53644;SDS011;39547;45.554;12.068;2023-04-25T22:41:13;13.88;;;6.47;;
53644;SDS011;39547;45.554;12.068;2023-04-25T22:47:15;14.98;;;6.97;;
53644;SDS011;39547;45.554;12.068;2023-04-25T22:53:16;14.07;;;6.40;;
53644;SDS011;39547;45.554;12.068;2023-04-25T22:59:18;15.43;;;7.20;;
53644;SDS011;39547;45.554;12.068;2023-04-25T23:05:20;14.55;;;6.25;;
53644;SDS011;39547;45.554;12.068;2023-04-25T23:11:24;15.17;;;6.90;;
53644;SDS011;39547;45.554;12.068;2023-04-25T23:17:25;15.35;;;6.90;;
53644;SDS011;39547;45.554;12.068;2023-04-25T23:23:27;13.18;;;5.53;;
53644;SDS011;39547;45.554;12.068;2023-04-25T23:29:29;13.75;;;6.10;;
53644;SDS011;39547;45.554;12.068;2023-04-25T23:35:34;14.75;;;6.68;;
53644;SDS011;39547;45.554;12.068;2023-04-25T23:41:36;14.05;;;6.00;;
53644;SDS011;39547;45.554;12.068;2023-04-25T23:47:38;15.13;;;6.20;;
53644;SDS011;39547;45.554;12.068;2023-04-25T23:53:39;15.13;;;6.97;;
53644;SDS011;39547;45.554;12.068;2023-04-25T23:59:41;16.63;;;8.02;;
